Nave Sextans — 3FOJ3 — position and weather

sailwx.info

Track history (hours):
 
Tides and Currents Weather Stations Pressure Air Temp Water Temp Dewpoint Dewpoint Depression Visibility Wind Speed Wind Dir Waves Ship Positions

Nave Sextans

Last reported at 2018-Jun-18 05:30 UTC. Time now 2018-Jun-18 05:46 UTC.
Position N 01°16' E 103°58'.

Length 183 m; draft 11.1 m.

Type: Ship (hazmat cat D). MMSI: 372151000.

Date/timePositionNaut miles runAvg speedWind from/ knotsBaromVisibWave heightAir tempDewpointWater temp
2018-Jun-18 05:30N 01°16' E 103°58'1 2.3
2018-Jun-18 05:00N 01°15' E 103°59'3 6.9
2018-Jun-18 04:30N 01°15' E 104°02'612.2
2018-Jun-18 04:00N 01°14' E 103°56'713.7
2018-Jun-18 03:30N 01°11' E 103°50'714.0
2018-Jun-18 03:00N 01°06' E 103°45'713.5
2018-Jun-18 02:31N 01°02' E 103°39'611.1
2018-Jun-18 02:00N 01°05' E 103°34'611.4
2018-Jun-18 01:29N 01°09' E 103°29'612.2
2018-Jun-18 00:59N 01°12' E 103°25'711.6
2018-Jun-18 00:24N 01°16' E 103°19'511.5
2018-Jun-17 23:57N 01°20' E 103°15'  
2018-Jun-14 06:05N 01°27' E 103°07'112.7
2018-Jun-14 05:59N 01°27' E 103°08'712.5
2018-Jun-14 05:27N 01°23' E 103°14'512.1
2018-Jun-14 05:00N 01°19' E 103°18'611.4
2018-Jun-14 04:30N 01°16' E 103°22'610.9
2018-Jun-14 04:00N 01°13' E 103°27'611.2
2018-Jun-14 03:31N 01°12' E 103°33'611.7
2018-Jun-14 03:00N 01°11' E 103°39'611.6
2018-Jun-14 02:30N 01°09' E 103°44'713.5
2018-Jun-14 02:00N 01°11' E 103°50'713.3
2018-Jun-14 01:30N 01°14' E 103°56'713.0
2018-Jun-14 00:59N 01°16' E 104°02'612.9
2018-Jun-14 00:30N 01°17' E 104°09'713.3
2018-Jun-13 23:59N 01°18' E 104°16'612.5
2018-Jun-13 23:29N 01°20' E 104°21'612.0
2018-Jun-13 23:00N 01°24' E 104°25'611.2
2018-Jun-13 22:28N 01°29' E 104°29'510.2
2018-Jun-13 21:57N 01°35' E 104°30'5 9.6
2018-Jun-13 21:27N 01°39' E 104°28'2 1.8
2018-Jun-13 20:27N 01°41' E 104°27'0 0.0
2018-Jun-13 19:36N 01°41' E 104°27'0 0.0
2018-Jun-13 15:10N 01°41' E 104°27'0 0.0
2018-Jun-13 14:43N 01°41' E 104°27'0 0.0
2018-Jun-13 13:18N 01°41' E 104°27'0 0.0
2018-Jun-13 12:54N 01°41' E 104°27'0 0.0
2018-Jun-12 20:36N 01°41' E 104°27'0 0.0
2018-Jun-12 20:09N 01°41' E 104°27'0 0.0
2018-Jun-10 17:49N 01°41' E 104°27'0 0.0
2018-Jun-09 21:21N 01°41' E 104°27'0 0.0
2018-Jun-09 20:39N 01°41' E 104°27'0 0.0
2018-Jun-09 16:24N 01°41' E 104°27'12 0.4
2018-Jun-08 14:20N 01°29' E 104°30'710.5
2018-Jun-08 13:38N 01°23' E 104°27'313.0
2018-Jun-08 13:26N 01°21' E 104°25'612.5
2018-Jun-08 12:58N 01°17' E 104°20'612.4
2018-Jun-08 12:29N 01°16' E 104°14'612.7
2018-Jun-08 11:59N 01°15' E 104°08'612.0
2018-Jun-08 11:31N 01°14' E 104°02'612.1
2018-Jun-08 10:59N 01°13' E 103°56'511.2
2018-Jun-08 10:30N 01°11' E 103°51'3 6.0
2018-Jun-08 10:00N 01°12' E 103°48'1 1.6
2018-Jun-08 09:29N 01°13' E 103°48'0 0.0
2018-Jun-08 08:59N 01°13' E 103°48'0 0.3
2018-Jun-08 08:30N 01°13' E 103°48'0 0.1
2018-Jun-08 08:00N 01°13' E 103°48'0 0.1
2018-Jun-08 07:30N 01°13' E 103°48'0 0.0
2018-Jun-08 06:59N 01°13' E 103°48'0 0.0
2018-Jun-08 06:29N 01°13' E 103°48'0 0.0
2018-Jun-08 06:00N 01°13' E 103°48'  
Track history (hours):
 
Tides and Currents Weather Stations Pressure Air Temp Water Temp Dewpoint Dewpoint Depression Visibility Wind Speed Wind Dir Waves Ship Positions

Nave Sextans

Last reported at 2018-Jun-18 05:30 UTC. Time now 2018-Jun-18 05:46 UTC.
Position N 01°16' E 103°58'.

Length 183 m; draft 11.1 m.

Type: Ship (hazmat cat D). MMSI: 372151000.

Date/timePositionNaut miles runAvg speedWind from/ knotsBaromVisibWave heightAir tempDewpointWater temp
2018-Jun-18 05:30N 01°16' E 103°58'1 2.3
2018-Jun-18 05:00N 01°15' E 103°59'3 6.9
2018-Jun-18 04:30N 01°15' E 104°02'612.2
2018-Jun-18 04:00N 01°14' E 103°56'713.7
2018-Jun-18 03:30N 01°11' E 103°50'714.0
2018-Jun-18 03:00N 01°06' E 103°45'713.5
2018-Jun-18 02:31N 01°02' E 103°39'611.1
2018-Jun-18 02:00N 01°05' E 103°34'611.4
2018-Jun-18 01:29N 01°09' E 103°29'612.2
2018-Jun-18 00:59N 01°12' E 103°25'711.6
2018-Jun-18 00:24N 01°16' E 103°19'511.5
2018-Jun-17 23:57N 01°20' E 103°15'  
2018-Jun-14 06:05N 01°27' E 103°07'112.7
2018-Jun-14 05:59N 01°27' E 103°08'712.5
2018-Jun-14 05:27N 01°23' E 103°14'512.1
2018-Jun-14 05:00N 01°19' E 103°18'611.4
2018-Jun-14 04:30N 01°16' E 103°22'610.9
2018-Jun-14 04:00N 01°13' E 103°27'611.2
2018-Jun-14 03:31N 01°12' E 103°33'611.7
2018-Jun-14 03:00N 01°11' E 103°39'611.6
2018-Jun-14 02:30N 01°09' E 103°44'713.5
2018-Jun-14 02:00N 01°11' E 103°50'713.3
2018-Jun-14 01:30N 01°14' E 103°56'713.0
2018-Jun-14 00:59N 01°16' E 104°02'612.9
2018-Jun-14 00:30N 01°17' E 104°09'713.3
2018-Jun-13 23:59N 01°18' E 104°16'612.5
2018-Jun-13 23:29N 01°20' E 104°21'612.0
2018-Jun-13 23:00N 01°24' E 104°25'611.2
2018-Jun-13 22:28N 01°29' E 104°29'510.2
2018-Jun-13 21:57N 01°35' E 104°30'5 9.6
2018-Jun-13 21:27N 01°39' E 104°28'2 1.8
2018-Jun-13 20:27N 01°41' E 104°27'0 0.0
2018-Jun-13 19:36N 01°41' E 104°27'0 0.0
2018-Jun-13 15:10N 01°41' E 104°27'0 0.0
2018-Jun-13 14:43N 01°41' E 104°27'0 0.0
2018-Jun-13 13:18N 01°41' E 104°27'0 0.0
2018-Jun-13 12:54N 01°41' E 104°27'0 0.0
2018-Jun-12 20:36N 01°41' E 104°27'0 0.0
2018-Jun-12 20:09N 01°41' E 104°27'0 0.0
2018-Jun-10 17:49N 01°41' E 104°27'0 0.0
2018-Jun-09 21:21N 01°41' E 104°27'0 0.0
2018-Jun-09 20:39N 01°41' E 104°27'0 0.0
2018-Jun-09 16:24N 01°41' E 104°27'12 0.4
2018-Jun-08 14:20N 01°29' E 104°30'710.5
2018-Jun-08 13:38N 01°23' E 104°27'313.0
2018-Jun-08 13:26N 01°21' E 104°25'612.5
2018-Jun-08 12:58N 01°17' E 104°20'612.4
2018-Jun-08 12:29N 01°16' E 104°14'612.7
2018-Jun-08 11:59N 01°15' E 104°08'612.0
2018-Jun-08 11:31N 01°14' E 104°02'612.1
2018-Jun-08 10:59N 01°13' E 103°56'511.2
2018-Jun-08 10:30N 01°11' E 103°51'3 6.0
2018-Jun-08 10:00N 01°12' E 103°48'1 1.6
2018-Jun-08 09:29N 01°13' E 103°48'0 0.0
2018-Jun-08 08:59N 01°13' E 103°48'0 0.3
2018-Jun-08 08:30N 01°13' E 103°48'0 0.1
2018-Jun-08 08:00N 01°13' E 103°48'0 0.1
2018-Jun-08 07:30N 01°13' E 103°48'0 0.0
2018-Jun-08 06:59N 01°13' E 103°48'0 0.0
2018-Jun-08 06:29N 01°13' E 103°48'0 0.0
2018-Jun-08 06:00N 01°13' E 103°48'  

Dump ship's entire track history